To NAV CANADA Home Page Login to a new session Search on AWWS site Feedback and Comments Disclaimer Vers la page française équivalente Tips FAQ What's new on the site To the Forecasts and Observations / NOTAM section To "File a Flight Plan" website Publications and other links Update of the User's profile FIC Telephone Numbers My Weather Data Folder Route Weather Data Regional Weather Data Local Weather Data To the Forecasts and Observations / NOTAM section
Request Generated 07/30/2015 at 14:06:16 UTC . Weather information available at that time is displayed.

METAR/TAF

CHURCHILL/MB    (show WxCam)

METAR CYYQ 301400Z 33014KT 1/2SM R33/5500FT/U FG VV002 10/10 A2965
RMK FG8 SLP041=
SPECI CYYQ 301346Z 33012G19KT 3/4SM R33/P6000FT/D BR VV002 10/10
A2964 RMK FG8 SLP040=
SPECI CYYQ 301334Z 34013G21KT 2SM BR OVC004 10/10 A2965 RMK FG3ST5
VIS S 1 SLP041=
METAR CYYQ 301300Z 34014KT 5SM BR BKN004 OVC011 10/10 A2965 RMK
ST7SC1 SLP041=
SPECI CYYQ 301248Z 34013G19KT 5SM BR BKN004 OVC011 10/09 A2964 RMK
ST6SC2 SLP040=
SPECI CYYQ 301210Z 35017G22KT 5SM BR OVC002 09/09 A2965 RMK ST8
SLP041=
METAR CYYQ 301200Z 35017G23KT 1SM OVC002 09/09 A2965 RMK FG4ST4
SLP042=

TAF CYYQ 301138Z 3012/3112 35015G25KT 1/2SM FG OVC002 TEMPO 3012/3020
5SM BR OVC006
BECMG 3012/3014 35020G30KT
FM302000 35020G30KT 1SM BR OVC003 TEMPO 3020/3112 5SM BR OVC008
RMK NXT FCST BY 301800Z=
Your time UTC time
Weather data provided by Environment Canada and NAV CANADA